Time;durP1;ratioP1;P1;durP2;ratioP2;P2;SDS_P1;SDS_P2;PMS_P1;PMS_P2;Temp;Humidity;BMP_temperature;BMP_pressure;BME280_temperature;BME280_humidity;BME280_pressure;Samples;Min_cycle;Max_cycle;Signal;HPM_P1;HPM_P2
2023/01/28 00:01:09;;;;;;;5.20;4.63;;;;;;;5.65;69.35;98719.09;5053193;28;20203;-55
2023/01/28 00:03:37;;;;;;;5.90;4.40;;;;;;;5.53;69.27;98721.34;5053322;28;20196;-55
2023/01/28 00:06:05;;;;;;;7.47;4.57;;;;;;;5.52;69.32;98718.78;5053217;28;20191;-55
2023/01/28 00:08:33;;;;;;;5.20;4.40;;;;;;;5.49;69.72;98727.22;5053250;28;20215;-55
2023/01/28 00:11:01;;;;;;;5.30;4.63;;;;;;;5.45;69.93;98716.91;5053131;28;20722;-55
2023/01/28 00:13:28;;;;;;;4.60;4.13;;;;;;;5.43;70.30;98726.19;5053982;28;20524;-55
2023/01/28 00:15:56;;;;;;;4.43;4.03;;;;;;;5.40;71.05;98728.66;5052936;28;20191;-55
2023/01/28 00:18:24;;;;;;;5.55;5.03;;;;;;;5.40;70.41;98728.66;5051530;28;20467;-55
2023/01/28 00:20:57;;;;;;;4.67;4.27;;;;;;;5.44;70.93;98727.94;5052771;28;20675;-56
2023/01/28 00:23:23;;;;;;;5.03;4.37;;;;;;;5.38;70.18;98729.47;5053401;28;20195;-55
2023/01/28 00:25:53;;;;;;;5.20;4.40;;;;;;;5.36;70.57;98737.91;5053045;28;20714;-54
2023/01/28 00:28:19;;;;;;;8.13;4.20;;;;;;;5.32;70.36;98734.44;5053194;28;20214;-54
2023/01/28 00:30:46;;;;;;;5.43;4.93;;;;;;;5.32;70.52;98734.44;5052405;28;20439;-54
2023/01/28 00:33:13;;;;;;;4.97;4.47;;;;;;;5.36;69.83;98738.78;5053293;28;20191;-53
2023/01/28 00:35:40;;;;;;;4.97;4.47;;;;;;;5.38;70.29;98738.84;5052635;28;20194;-53
2023/01/28 00:38:07;;;;;;;6.40;4.47;;;;;;;5.40;70.44;98751.59;5052794;28;20713;-54
2023/01/28 00:40:34;;;;;;;4.83;4.10;;;;;;;5.36;71.02;98751.50;5052767;28;20193;-54
2023/01/28 00:43:02;;;;;;;4.83;4.43;;;;;;;5.24;70.55;98761.41;5052656;28;20185;-53
2023/01/28 00:45:29;;;;;;;5.50;4.37;;;;;;;5.25;71.16;98765.66;5052620;28;20198;-54
2023/01/28 00:47:56;;;;;;;4.80;4.30;;;;;;;5.20;70.75;98758.72;5052212;28;20230;-54
2023/01/28 00:50:23;;;;;;;4.70;4.20;;;;;;;5.17;71.97;98756.09;5051451;28;20218;-54
2023/01/28 00:52:49;;;;;;;4.80;4.30;;;;;;;5.24;71.80;98761.41;5052761;28;20238;-54
2023/01/28 00:55:16;;;;;;;5.53;4.57;;;;;;;5.30;71.77;98768.34;5049617;28;20207;-54
2023/01/28 00:57:43;;;;;;;4.60;4.20;;;;;;;5.27;72.07;98768.25;5052470;28;20622;-54
2023/01/28 01:00:12;;;;;;;5.47;4.93;;;;;;;5.28;72.16;98764.88;5052828;28;20195;-54
2023/01/28 01:02:39;;;;;;;5.90;4.17;;;;;;;5.28;71.52;98768.28;5052323;28;20191;-54
2023/01/28 01:05:07;;;;;;;5.80;4.10;;;;;;;5.23;71.18;98764.75;5052548;28;20193;-53
2023/01/28 01:07:40;;;;;;;4.63;4.20;;;;;;;5.21;71.85;98773.19;5052273;28;20702;-53
2023/01/28 01:10:09;;;;;;;6.73;4.77;;;;;;;5.21;72.05;98768.09;5051573;28;20595;-53
2023/01/28 01:12:36;;;;;;;4.70;4.20;;;;;;;5.30;71.88;98773.44;5032508;28;20660;-54
2023/01/28 01:15:03;;;;;;;5.43;4.63;;;;;;;5.05;71.29;98725.25;5031982;28;20253;-53
2023/01/28 01:17:31;;;;;;;6.80;4.47;;;;;;;5.32;71.26;98770.09;5042693;28;20198;-54
2023/01/28 01:19:58;;;;;;;5.37;4.23;;;;;;;5.33;71.24;98765.84;5051156;28;20300;-54
2023/01/28 01:22:25;;;;;;;5.70;4.90;;;;;;;5.28;71.64;98762.31;5051644;28;20659;-54
2023/01/28 01:24:52;;;;;;;5.10;4.60;;;;;;;5.32;70.83;98775.19;5051759;28;20196;-54
2023/01/28 01:27:18;;;;;;;6.17;4.43;;;;;;;5.28;71.50;98775.94;5051723;28;20564;-54
2023/01/28 01:29:45;;;;;;;4.50;4.10;;;;;;;5.27;70.93;98783.53;5048850;28;20411;-54
2023/01/28 01:32:12;;;;;;;6.50;4.17;;;;;;;5.29;70.73;98772.56;5041899;28;20203;-54
2023/01/28 01:34:40;;;;;;;4.43;3.87;;;;;;;5.29;70.85;98770.03;5040247;28;20198;-54
2023/01/28 01:37:09;;;;;;;4.40;3.97;;;;;;;5.39;70.20;98781.28;5042984;28;20219;-55
2023/01/28 01:39:36;;;;;;;3.93;3.50;;;;;;;5.38;70.43;98780.41;5041507;28;20203;-54
2023/01/28 01:42:02;;;;;;;4.93;4.40;;;;;;;5.33;69.69;98782.00;5048330;28;20190;-54
2023/01/28 01:44:58;;;;;;;4.13;3.70;;;;;;;5.35;69.73;98798.19;5051336;28;20675;-54
2023/01/28 01:47:27;;;;;;;3.97;3.63;;;;;;;4.64;69.55;98681.78;5051643;28;20653;-54
2023/01/28 01:49:56;;;;;;;5.10;4.20;;;;;;;5.28;70.12;98806.47;5051730;28;20710;-54
2023/01/28 01:52:28;;;;;;;4.30;3.90;;;;;;;5.25;69.94;98793.66;5050711;28;20190;-55
2023/01/28 01:54:59;;;;;;;3.87;3.57;;;;;;;5.33;69.85;98796.41;5051570;28;20188;-54
2023/01/28 01:57:30;;;;;;;4.53;4.13;;;;;;;5.33;70.00;98807.47;5051390;28;20190;-54
2023/01/28 02:00:04;;;;;;;4.70;4.30;;;;;;;5.38;69.99;98810.97;5051354;28;20202;-54
2023/01/28 02:02:34;;;;;;;4.27;3.80;;;;;;;5.43;69.50;98810.25;5051349;28;20317;-54
2023/01/28 02:05:03;;;;;;;5.10;3.83;;;;;;;5.34;69.20;98788.81;5051605;28;20217;-54
2023/01/28 02:07:30;;;;;;;4.63;4.23;;;;;;;5.38;69.25;98817.78;5051862;28;20197;-54
2023/01/28 02:09:57;;;;;;;4.20;3.80;;;;;;;5.32;69.08;98808.31;5050914;28;20280;-55
2023/01/28 02:12:29;;;;;;;3.93;3.63;;;;;;;5.40;69.43;98815.25;5031832;28;20199;-54
2023/01/28 02:14:59;;;;;;;5.13;4.03;;;;;;;5.38;69.07;98822.00;5031649;28;20198;-54
2023/01/28 02:17:27;;;;;;;4.40;4.00;;;;;;;5.43;68.93;98822.97;5032242;28;20287;-54
2023/01/28 02:19:57;;;;;;;4.10;3.70;;;;;;;5.47;69.55;98824.78;5031565;28;20199;-54
2023/01/28 02:22:52;;;;;;;4.37;3.97;;;;;;;5.43;69.59;98828.09;5031475;28;20189;-54
2023/01/28 02:25:58;;;;;;;4.50;4.03;;;;;;;5.42;68.82;98832.31;5031423;28;20199;-54
2023/01/28 02:28:34;;;;;;;4.30;3.90;;;;;;;5.43;69.67;98830.63;5031819;28;20261;-53
2023/01/28 02:31:09;;;;;;;4.60;3.63;;;;;;;5.43;68.64;98830.63;5031792;28;20277;-55
2023/01/28 02:33:44;;;;;;;4.30;3.90;;;;;;;5.50;68.91;98835.03;5031526;28;20542;-54
2023/01/28 02:36:20;;;;;;;4.20;3.80;;;;;;;5.50;68.90;98837.59;5031404;28;20634;-54
2023/01/28 02:38:50;;;;;;;3.97;3.60;;;;;;;5.47;67.66;98824.78;5031460;28;20260;-54
2023/01/28 02:41:25;;;;;;;4.33;3.77;;;;;;;5.56;68.61;98830.09;5031160;28;20565;-54
2023/01/28 02:43:53;;;;;;;4.53;3.97;;;;;;;5.59;67.84;98830.19;5031477;28;20214;-54
2023/01/28 02:49:11;;;;;;;4.27;3.87;;;;;;;5.54;68.10;98847.03;5031669;28;20196;-54
2023/01/28 02:51:52;;;;;;;3.40;3.10;;;;;;;5.55;67.94;98851.34;5031261;28;20231;-54
2023/01/28 02:54:32;;;;;;;4.93;4.17;;;;;;;5.55;68.22;98844.53;5031191;28;20663;-54
2023/01/28 02:57:09;;;;;;;4.67;4.20;;;;;;;5.46;67.89;98848.53;5037131;28;20556;-55
2023/01/28 02:59:42;;;;;;;4.03;3.63;;;;;;;5.43;67.04;98845.91;5040398;28;20203;-54
2023/01/28 03:02:17;;;;;;;3.67;3.37;;;;;;;5.48;67.00;98852.84;5030953;28;20202;-54
2023/01/28 03:04:50;;;;;;;3.40;3.20;;;;;;;5.45;67.90;98845.13;5031191;28;20186;-55
2023/01/28 03:07:19;;;;;;;4.97;3.43;;;;;;;4.88;67.19;98734.13;5031182;28;20188;-54
2023/01/28 03:09:47;;;;;;;3.50;3.20;;;;;;;5.31;67.00;98837.13;5031001;28;20194;-54
2023/01/28 03:37:33;;;;;;;3.10;2.87;;;;;;;5.44;67.04;98865.47;5034518;28;20231;-55
2023/01/28 03:40:05;;;;;;;3.93;3.33;;;;;;;5.27;66.45;98840.41;5034336;28;20189;-54
2023/01/28 03:42:32;;;;;;;3.13;2.63;;;;;;;5.36;66.44;98858.47;5034013;28;20188;-54
2023/01/28 03:45:00;;;;;;;3.57;3.07;;;;;;;5.41;66.42;98875.59;5034340;28;20570;-54
2023/01/28 03:47:30;;;;;;;3.67;3.20;;;;;;;5.16;65.95;98836.72;5041229;28;20192;-54
2023/01/28 03:49:59;;;;;;;3.03;2.73;;;;;;;5.38;65.66;98866.19;5051315;28;20663;-54
2023/01/28 03:52:29;;;;;;;3.17;2.90;;;;;;;5.38;66.42;98872.09;5051152;28;20191;-54
2023/01/28 03:54:56;;;;;;;2.63;2.43;;;;;;;5.39;66.47;98878.06;5051197;28;20191;-54
2023/01/28 03:57:25;;;;;;;3.50;3.20;;;;;;;5.35;66.34;98884.78;5050175;28;20596;-54
2023/01/28 03:59:52;;;;;;;3.80;3.33;;;;;;;5.38;66.89;98882.28;5050827;28;20448;-55
2023/01/28 04:02:20;;;;;;;2.70;2.50;;;;;;;5.34;65.92;98880.50;5055394;28;20202;-55
2023/01/28 04:04:48;;;;;;;3.30;3.00;;;;;;;5.31;66.68;98879.56;5053572;28;20197;-55
2023/01/28 04:07:15;;;;;;;3.70;3.40;;;;;;;5.20;66.32;98881.81;5034154;28;20326;-55
2023/01/28 04:09:43;;;;;;;5.33;2.70;;;;;;;5.25;66.58;98880.25;5033293;28;20298;-55
2023/01/28 04:12:10;;;;;;;3.37;2.77;;;;;;;5.23;67.33;98886.13;5033428;28;20221;-54
2023/01/28 04:14:38;;;;;;;3.07;2.77;;;;;;;5.26;66.29;98881.97;5033460;28;20190;-55
2023/01/28 04:17:06;;;;;;;4.50;3.13;;;;;;;5.22;66.80;98885.25;5033753;28;20197;-55
2023/01/28 04:19:35;;;;;;;3.10;2.80;;;;;;;5.08;67.13;98866.19;5047321;28;20286;-55
2023/01/28 04:22:05;;;;;;;3.00;2.80;;;;;;;5.19;67.15;98880.06;5052883;28;20202;-55
2023/01/28 04:24:32;;;;;;;2.77;2.57;;;;;;;5.20;67.86;98876.72;5052909;28;20190;-55
2023/01/28 04:26:59;;;;;;;3.73;3.40;;;;;;;5.19;67.12;98884.34;5052946;28;20655;-55
2023/01/28 04:29:26;;;;;;;3.53;3.23;;;;;;;5.23;67.04;98878.47;5052861;28;20618;-55
2023/01/28 04:31:52;;;;;;;3.17;2.83;;;;;;;5.26;66.50;98891.31;5053083;28;20223;-55
2023/01/28 04:34:19;;;;;;;4.20;3.20;;;;;;;5.22;67.88;98887.81;5052985;28;20193;-55
2023/01/28 04:36:46;;;;;;;3.13;2.83;;;;;;;5.20;67.32;98894.53;5053320;28;20217;-55
2023/01/28 04:39:15;;;;;;;3.30;3.00;;;;;;;5.13;67.12;98884.16;5052833;28;20191;-55
2023/01/28 04:41:41;;;;;;;3.53;2.80;;;;;;;5.12;68.01;98892.59;5053026;28;20214;-54
2023/01/28 04:44:08;;;;;;;4.97;2.93;;;;;;;5.10;68.14;98879.84;5052636;28;20665;-54
2023/01/28 04:46:35;;;;;;;3.37;3.07;;;;;;;5.11;67.84;98906.19;5052963;28;20200;-55
2023/01/28 04:49:02;;;;;;;3.30;2.97;;;;;;;5.09;67.55;98895.06;5052657;28;20191;-55
2023/01/28 04:51:29;;;;;;;3.53;2.70;;;;;;;5.08;67.39;98906.91;5052499;28;20215;-55
2023/01/28 04:53:55;;;;;;;3.20;2.90;;;;;;;5.06;68.05;98918.75;5052887;28;20195;-55
2023/01/28 04:56:24;;;;;;;3.13;2.77;;;;;;;5.07;68.04;98915.41;5052425;28;20188;-55
2023/01/28 04:58:50;;;;;;;3.30;3.00;;;;;;;5.00;67.99;98905.00;5052830;28;20202;-55
2023/01/28 05:01:17;;;;;;;3.20;2.90;;;;;;;5.02;67.79;98931.34;5052337;28;20245;-55
2023/01/28 05:03:44;;;;;;;3.23;2.93;;;;;;;4.89;67.57;98914.00;5052458;28;20199;-55
2023/01/28 05:06:11;;;;;;;3.47;3.17;;;;;;;4.98;67.92;98935.50;5047667;28;20616;-55
2023/01/28 05:08:37;;;;;;;4.23;3.57;;;;;;;5.04;67.75;98935.66;5032367;28;20635;-55
2023/01/28 05:11:04;;;;;;;3.53;3.23;;;;;;;5.05;67.73;98934.00;5032081;28;20225;-55
2023/01/28 05:13:32;;;;;;;3.87;3.10;;;;;;;5.03;67.76;98936.47;5032141;28;20679;-55
2023/01/28 05:15:59;;;;;;;3.80;3.50;;;;;;;5.00;68.77;98944.03;5032250;28;20192;-54
2023/01/28 05:18:26;;;;;;;2.90;2.70;;;;;;;5.06;67.80;98938.25;5032322;28;20526;-55
2023/01/28 05:20:53;;;;;;;4.23;3.43;;;;;;;5.01;68.75;98943.22;5032174;28;20199;-55
2023/01/28 05:23:20;;;;;;;3.13;2.73;;;;;;;5.08;68.05;98949.38;5032365;28;20193;-55
2023/01/28 05:25:46;;;;;;;3.50;3.13;;;;;;;5.12;68.05;98941.84;5033685;28;20200;-55
2023/01/28 05:28:13;;;;;;;3.40;3.10;;;;;;;5.14;67.63;98952.94;5052050;28;20200;-54
2023/01/28 05:30:41;;;;;;;3.50;3.20;;;;;;;5.18;67.97;98953.88;5048531;28;20256;-55
2023/01/28 05:33:08;;;;;;;3.83;3.33;;;;;;;5.15;68.00;98948.72;5051504;28;20194;-55
2023/01/28 05:35:35;;;;;;;4.20;3.80;;;;;;;5.20;67.53;98950.56;5051046;28;20439;-54
2023/01/28 05:38:02;;;;;;;4.33;3.80;;;;;;;5.27;67.51;98957.53;5052297;28;20289;-55
2023/01/28 05:40:29;;;;;;;4.07;3.47;;;;;;;5.29;67.90;98962.69;5051808;28;20721;-55
2023/01/28 05:42:56;;;;;;;4.73;3.73;;;;;;;5.25;67.77;98956.66;5052045;28;20193;-54
2023/01/28 05:45:23;;;;;;;3.70;3.40;;;;;;;5.28;67.14;98966.91;5051527;28;20202;-55
2023/01/28 05:47:51;;;;;;;4.60;3.83;;;;;;;5.34;67.52;98978.97;5051077;28;20227;-55
2023/01/28 05:50:18;;;;;;;5.60;4.17;;;;;;;5.34;67.42;98966.22;5051699;28;20243;-55
2023/01/28 05:52:45;;;;;;;5.23;3.80;;;;;;;5.35;67.22;98961.19;5051834;28;20705;-54
2023/01/28 05:55:12;;;;;;;4.97;3.60;;;;;;;5.34;67.73;98984.06;5051879;28;20256;-54
2023/01/28 05:57:39;;;;;;;6.40;4.50;;;;;;;5.36;67.67;98983.28;5050646;28;20206;-54
2023/01/28 06:00:07;;;;;;;7.80;5.50;;;;;;;5.33;68.45;98990.84;5052295;28;20216;-55
2023/01/28 06:02:33;;;;;;;8.90;6.53;;;;;;;5.42;67.48;98990.22;5051809;28;20205;-54
2023/01/28 06:05:02;;;;;;;5.10;3.87;;;;;;;5.46;67.45;98991.19;5051908;28;20187;-55
2023/01/28 06:07:28;;;;;;;9.67;5.93;;;;;;;5.46;66.76;99009.03;5052235;28;20195;-54
2023/01/28 06:09:55;;;;;;;5.27;3.73;;;;;;;5.44;66.90;99005.56;5051954;28;20213;-55
2023/01/28 06:12:22;;;;;;;4.77;4.00;;;;;;;5.44;67.61;99008.13;5051707;28;20630;-55
2023/01/28 06:14:48;;;;;;;6.00;4.63;;;;;;;5.35;68.00;98998.53;5051521;28;20252;-54
2023/01/28 06:17:15;;;;;;;6.33;4.70;;;;;;;5.51;67.42;99015.09;5051532;28;20247;-54
2023/01/28 06:19:42;;;;;;;5.97;4.13;;;;;;;5.46;66.84;99021.75;5051331;28;20189;-55
2023/01/28 06:22:11;;;;;;;5.87;4.43;;;;;;;5.50;67.23;99023.56;5051183;28;20265;-55
2023/01/28 06:24:37;;;;;;;6.93;4.40;;;;;;;5.49;67.50;99027.81;5051320;28;20655;-55
2023/01/28 06:27:04;;;;;;;5.67;4.80;;;;;;;5.49;67.61;99030.38;5051854;28;20198;-55
2023/01/28 06:29:31;;;;;;;6.07;4.20;;;;;;;5.40;66.62;99027.53;5051153;28;20659;-55
2023/01/28 06:31:58;;;;;;;5.40;4.90;;;;;;;5.52;67.29;99032.13;5051256;28;20642;-55
2023/01/28 06:34:25;;;;;;;5.63;5.03;;;;;;;5.56;67.63;99039.03;5051403;28;20222;-55
2023/01/28 06:36:52;;;;;;;8.80;5.03;;;;;;;5.54;66.79;99030.47;5050963;28;20584;-54
2023/01/28 06:39:21;;;;;;;5.33;4.63;;;;;;;5.51;67.08;99038.03;5051473;28;20199;-55
2023/01/28 06:41:47;;;;;;;5.33;4.47;;;;;;;5.54;67.08;99035.56;5051017;28;20664;-55
2023/01/28 06:44:14;;;;;;;5.63;4.67;;;;;;;5.61;67.28;99053.63;5051801;28;20286;-55
2023/01/28 06:46:41;;;;;;;5.40;4.80;;;;;;;5.61;66.86;99061.28;5054778;28;20198;-54
2023/01/28 06:49:08;;;;;;;6.37;4.83;;;;;;;5.61;67.31;99058.72;5054837;28;20618;-55
2023/01/28 06:51:35;;;;;;;6.00;4.90;;;;;;;5.66;67.25;99063.97;5054728;28;20289;-55
2023/01/28 06:54:02;;;;;;;4.97;4.40;;;;;;;5.73;67.41;99060.75;5054516;28;20682;-55
2023/01/28 06:56:30;;;;;;;5.40;4.90;;;;;;;5.71;67.20;99062.41;5054761;28;20217;-54
2023/01/28 06:58:56;;;;;;;6.67;4.70;;;;;;;5.74;66.69;99059.94;5054601;28;20271;-54
2023/01/28 07:01:23;;;;;;;7.73;5.17;;;;;;;5.76;66.89;99064.28;5053844;28;20195;-55
2023/01/28 07:03:50;;;;;;;5.27;4.77;;;;;;;5.76;66.76;99066.81;5054479;28;20192;-54
2023/01/28 07:06:17;;;;;;;7.53;5.27;;;;;;;5.75;66.91;99079.50;5044324;28;20683;-55
2023/01/28 07:08:44;;;;;;;7.07;5.17;;;;;;;5.80;66.62;99083.91;5038226;28;20215;-54
2023/01/28 07:11:11;;;;;;;8.17;5.70;;;;;;;5.77;66.92;99073.63;5054452;28;20194;-55
2023/01/28 07:13:39;;;;;;;7.27;5.03;;;;;;;5.80;67.15;99073.72;5054644;28;20774;-55
2023/01/28 07:16:07;;;;;;;5.50;5.00;;;;;;;5.84;66.93;99084.88;5054429;28;20226;-55
2023/01/28 07:18:34;;;;;;;7.23;5.53;;;;;;;5.86;67.51;99081.56;5054210;28;20198;-54
2023/01/28 07:21:01;;;;;;;7.67;6.00;;;;;;;5.93;66.91;99091.09;5053926;28;20681;-55
2023/01/28 07:23:28;;;;;;;5.77;5.10;;;;;;;5.93;67.28;99068.16;5053978;28;20556;-54
2023/01/28 07:25:54;;;;;;;6.50;5.30;;;;;;;6.03;66.57;99084.59;5053381;28;20188;-55
2023/01/28 07:28:21;;;;;;;5.03;4.63;;;;;;;6.00;66.01;99091.28;5052805;28;20575;-55
2023/01/28 07:30:50;;;;;;;6.90;4.57;;;;;;;5.91;66.74;99102.94;5046329;28;20198;-54
2023/01/28 07:33:18;;;;;;;5.80;5.20;;;;;;;6.02;66.55;99102.38;5054064;28;20227;-54
2023/01/28 07:35:46;;;;;;;8.57;5.03;;;;;;;5.98;66.13;99100.56;5053946;28;20219;-54
2023/01/28 07:38:13;;;;;;;5.93;5.00;;;;;;;6.07;65.60;99101.69;5039271;28;20258;-55
2023/01/28 07:40:41;;;;;;;7.07;4.83;;;;;;;6.11;65.57;99107.75;5052362;28;20189;-55
2023/01/28 07:43:08;;;;;;;5.30;4.80;;;;;;;6.12;65.11;99115.44;5051438;28;20673;-55
2023/01/28 07:45:35;;;;;;;6.20;5.60;;;;;;;6.08;65.16;99089.81;5036253;28;20255;-53
2023/01/28 07:48:05;;;;;;;7.17;6.00;;;;;;;6.24;65.47;99109.78;5051321;28;20201;-54
2023/01/28 07:50:35;;;;;;;5.17;4.67;;;;;;;6.26;64.47;99105.63;5052865;28;20625;-55
2023/01/28 07:53:03;;;;;;;7.07;5.63;;;;;;;6.47;64.10;99118.94;5052700;28;20222;-55
2023/01/28 07:55:30;;;;;;;5.63;4.87;;;;;;;6.56;63.46;99105.56;5037014;28;20647;-54
2023/01/28 07:57:58;;;;;;;5.43;4.90;;;;;;;6.57;62.89;99105.56;5045386;28;20257;-54
2023/01/28 08:00:27;;;;;;;5.73;5.13;;;;;;;6.78;63.02;99113.81;5053637;28;20194;-54
2023/01/28 08:02:56;;;;;;;6.47;4.70;;;;;;;7.07;62.88;99119.59;5052947;28;20191;-53
2023/01/28 08:05:26;;;;;;;5.53;4.90;;;;;;;7.20;61.97;99126.72;5053057;28;20207;-54
2023/01/28 08:07:53;;;;;;;6.00;5.37;;;;;;;7.31;62.03;99119.28;5050149;28;20200;-54
2023/01/28 08:10:20;;;;;;;5.33;4.83;;;;;;;7.31;60.56;99134.63;5052962;28;20189;-54
2023/01/28 08:12:53;;;;;;;6.10;5.50;;;;;;;7.30;61.18;99132.91;5052895;28;20227;-53
2023/01/28 08:15:20;;;;;;;5.70;5.10;;;;;;;7.38;60.89;99127.16;5051891;28;20253;-54
2023/01/28 08:17:47;;;;;;;7.53;4.80;;;;;;;7.53;60.60;99131.72;5051284;28;20277;-54
2023/01/28 08:20:14;;;;;;;6.47;4.70;;;;;;;7.33;60.46;99146.63;5053121;28;20202;-54
2023/01/28 08:22:42;;;;;;;7.63;5.13;;;;;;;7.21;60.59;99099.47;5053050;28;20192;-53
2023/01/28 08:25:10;;;;;;;7.17;5.03;;;;;;;7.43;60.53;99147.69;5046727;28;20193;-52
2023/01/28 08:27:36;;;;;;;6.03;4.87;;;;;;;7.51;61.02;99153.84;5045522;28;20572;-53
2023/01/28 08:30:04;;;;;;;5.10;4.60;;;;;;;7.31;60.41;99158.50;5058212;28;20194;-55
2023/01/28 08:32:30;;;;;;;6.53;5.47;;;;;;;7.44;60.32;99141.78;5047626;28;20447;-54
2023/01/28 08:34:57;;;;;;;5.00;4.50;;;;;;;7.57;58.74;99152.31;5052859;28;20668;-54
2023/01/28 08:37:24;;;;;;;6.27;4.20;;;;;;;7.53;57.76;99157.28;5052175;28;20288;-54
2023/01/28 08:39:52;;;;;;;6.30;5.50;;;;;;;7.57;57.65;99166.78;5052564;28;20192;-54
2023/01/28 08:42:19;;;;;;;5.00;4.50;;;;;;;7.53;57.50;99163.28;5052481;28;20203;-52
2023/01/28 08:44:47;;;;;;;5.27;4.20;;;;;;;7.43;58.31;99169.00;5052270;28;20196;-52
2023/01/28 08:47:14;;;;;;;4.50;4.10;;;;;;;7.57;58.40;99169.31;5044510;28;20197;-54
2023/01/28 08:49:41;;;;;;;5.00;4.50;;;;;;;7.49;57.94;99171.72;5039105;28;20224;-53
2023/01/28 08:52:07;;;;;;;5.47;4.73;;;;;;;7.62;58.05;99167.72;5044062;28;20311;-54
2023/01/28 08:54:35;;;;;;;4.47;4.07;;;;;;;7.72;56.86;99173.09;5049378;28;20612;-55
2023/01/28 08:57:04;;;;;;;6.00;4.80;;;;;;;7.68;57.06;99178.09;5048421;28;20188;-54
2023/01/28 08:59:30;;;;;;;5.40;4.30;;;;;;;7.68;56.98;99176.41;5051659;28;20192;-55
2023/01/28 09:01:57;;;;;;;4.93;4.43;;;;;;;7.65;56.60;99173.78;5052044;28;20203;-54
2023/01/28 09:04:24;;;;;;;7.87;4.60;;;;;;;7.48;56.25;99125.66;5052323;28;20605;-54
2023/01/28 09:06:51;;;;;;;4.23;3.83;;;;;;;7.86;56.22;99185.28;5051659;28;20657;-54
2023/01/28 09:09:18;;;;;;;5.77;4.50;;;;;;;7.87;55.80;99180.22;5033477;28;20195;-52
2023/01/28 09:11:45;;;;;;;5.07;4.27;;;;;;;8.00;55.53;99199.25;5031943;28;20612;-53
2023/01/28 09:14:13;;;;;;;4.17;3.77;;;;;;;7.92;55.40;99182.88;5032082;28;20189;-53
2023/01/28 09:16:40;;;;;;;4.17;3.80;;;;;;;7.90;55.27;99182.00;5036929;28;20666;-54
2023/01/28 09:19:06;;;;;;;5.03;4.53;;;;;;;7.88;55.38;99183.66;5044489;28;20593;-53
2023/01/28 09:21:33;;;;;;;4.83;4.33;;;;;;;7.98;55.18;99183.88;5051937;28;20277;-54
2023/01/28 09:24:00;;;;;;;4.47;4.07;;;;;;;7.83;55.61;99198.06;5051686;28;20195;-53
2023/01/28 09:26:27;;;;;;;5.10;4.60;;;;;;;7.82;54.99;99176.72;5051345;28;20839;-53
2023/01/28 09:28:54;;;;;;;4.90;4.40;;;;;;;7.85;55.26;99179.34;5051473;28;20229;-54
2023/01/28 09:31:22;;;;;;;4.80;4.40;;;;;;;8.01;55.14;99175.41;5051501;28;20196;-53
2023/01/28 09:33:55;;;;;;;5.97;4.80;;;;;;;8.13;54.95;99163.72;5045017;28;20231;-54
2023/01/28 09:36:22;;;;;;;4.37;3.97;;;;;;;8.18;53.71;99174.06;5031458;28;20228;-54
2023/01/28 09:38:49;;;;;;;4.50;3.40;;;;;;;8.12;52.78;99169.69;5031289;28;20200;-54
2023/01/28 09:41:25;;;;;;;5.07;4.03;;;;;;;8.15;53.11;99177.44;5048640;28;20226;-55
2023/01/28 09:44:05;;;;;;;5.13;4.30;;;;;;;8.17;52.94;99182.56;5049714;28;20188;-56
2023/01/28 09:46:35;;;;;;;7.10;3.70;;;;;;;8.21;53.02;99174.97;5031480;28;20685;-54
2023/01/28 09:49:11;;;;;;;5.10;4.03;;;;;;;8.40;52.60;99189.06;5033582;28;20299;-54
2023/01/28 09:51:42;;;;;;;4.47;4.07;;;;;;;8.42;52.31;99166.03;5041494;28;20276;-54
2023/01/28 09:54:18;;;;;;;4.43;4.03;;;;;;;8.50;51.69;99177.28;5051148;28;20286;-53
2023/01/28 09:56:49;;;;;;;5.37;4.37;;;;;;;8.54;51.59;99171.41;5051091;28;20203;-54
2023/01/28 09:59:19;;;;;;;7.90;4.40;;;;;;;8.64;51.55;99179.28;5051616;28;20264;-53
2023/01/28 10:01:54;;;;;;;4.63;3.77;;;;;;;8.62;51.56;99180.09;5051361;28;20250;-54
2023/01/28 10:04:32;;;;;;;8.60;3.87;;;;;;;8.71;51.68;99176.00;5050949;28;20207;-53
2023/01/28 10:07:14;;;;;;;5.07;4.30;;;;;;;8.90;51.79;99180.59;5051317;28;20190;-53
2023/01/28 10:09:48;;;;;;;4.70;4.30;;;;;;;8.76;51.90;99184.63;5050885;28;20192;-54
2023/01/28 10:12:30;;;;;;;4.93;4.20;;;;;;;8.73;51.98;99184.59;5050882;28;20542;-53
2023/01/28 10:15:17;;;;;;;5.43;4.33;;;;;;;8.85;51.99;99168.56;5051076;28;20188;-54
2023/01/28 10:17:49;;;;;;;5.70;4.20;;;;;;;8.88;51.10;99174.59;5051115;28;20281;-54
2023/01/28 10:20:21;;;;;;;4.50;4.10;;;;;;;8.65;51.51;99178.44;5053889;28;20188;-54
2023/01/28 10:22:54;;;;;;;3.97;3.53;;;;;;;8.71;51.78;99176.00;5055132;28;20657;-54
2023/01/28 10:25:22;;;;;;;3.70;3.43;;;;;;;8.48;51.42;99171.28;5055018;28;20198;-54
2023/01/28 10:27:50;;;;;;;4.40;4.00;;;;;;;8.33;52.80;99192.31;5054787;28;20228;-54
2023/01/28 10:30:19;;;;;;;4.33;3.87;;;;;;;8.33;53.49;99182.06;5054838;28;20196;-54
2023/01/28 10:32:52;;;;;;;5.50;4.00;;;;;;;8.28;53.17;99179.44;5054542;28;20216;-54
2023/01/28 10:35:19;;;;;;;5.27;4.53;;;;;;;8.41;53.81;99179.66;5054732;28;20190;-55
2023/01/28 10:37:46;;;;;;;5.30;4.33;;;;;;;8.38;53.61;99180.47;5053078;28;21050;-55
2023/01/28 10:40:15;;;;;;;11.50;8.80;;;;;;;8.41;53.46;99184.78;5043951;28;20267;-54
2023/01/28 10:42:43;;;;;;;11.80;6.73;;;;;;;8.65;53.01;99175.88;5054082;28;20200;-55
2023/01/28 10:45:20;;;;;;;7.53;6.07;;;;;;;8.68;52.69;99193.84;5055078;28;20184;-54
2023/01/28 10:47:52;;;;;;;9.37;4.10;;;;;;;8.55;52.54;99178.22;5054591;28;20188;-53
2023/01/28 10:50:23;;;;;;;4.97;4.57;;;;;;;8.53;53.11;99180.78;5053954;28;20518;-54
2023/01/28 10:52:54;;;;;;;4.50;4.10;;;;;;;8.58;52.29;99191.97;5054625;28;20687;-54
2023/01/28 10:55:22;;;;;;;6.10;4.33;;;;;;;8.65;52.44;99180.16;5054438;28;20188;-54
2023/01/28 10:57:50;;;;;;;4.83;4.33;;;;;;;8.41;52.89;99171.97;5050073;28;20660;-55
2023/01/28 11:00:24;;;;;;;4.70;4.30;;;;;;;8.51;53.12;99182.47;5054248;28;20601;-55
2023/01/28 11:02:54;;;;;;;4.60;4.13;;;;;;;8.59;52.53;99178.34;5054605;28;20191;-53
2023/01/28 11:05:25;;;;;;;4.73;4.23;;;;;;;8.43;51.92;99178.88;5054492;28;20199;-54
2023/01/28 11:08:03;;;;;;;5.70;5.17;;;;;;;8.39;54.13;99168.53;5054203;28;20285;-53
2023/01/28 11:10:32;;;;;;;6.40;5.57;;;;;;;8.62;53.84;99172.41;5055003;28;20194;-54
2023/01/28 11:13:00;;;;;;;5.70;5.07;;;;;;;8.56;53.68;99180.84;5053893;28;20220;-54
2023/01/28 11:15:28;;;;;;;5.33;4.83;;;;;;;8.55;53.80;99176.53;5054120;28;20615;-54
2023/01/28 11:18:00;;;;;;;8.47;4.93;;;;;;;8.67;53.76;99178.47;5054137;28;20660;-54
2023/01/28 11:20:30;;;;;;;5.53;4.90;;;;;;;8.64;53.94;99186.97;5054292;28;20284;-53
2023/01/28 11:22:58;;;;;;;5.13;4.60;;;;;;;8.65;54.47;99181.00;5053894;28;20657;-54
2023/01/28 11:25:30;;;;;;;5.83;5.00;;;;;;;8.66;54.34;99182.72;5054262;28;20188;-54
2023/01/28 11:27:58;;;;;;;5.50;5.00;;;;;;;8.66;53.80;99171.63;5053921;28;20283;-54
2023/01/28 11:30:26;;;;;;;5.73;4.43;;;;;;;8.89;53.25;99175.47;5053658;28;20195;-54
2023/01/28 11:33:08;;;;;;;6.13;5.23;;;;;;;8.95;52.87;99175.59;5053397;28;20235;-54
2023/01/28 11:35:34;;;;;;;5.03;4.63;;;;;;;8.84;53.57;99174.53;5053728;28;20689;-54
2023/01/28 11:38:01;;;;;;;4.13;3.73;;;;;;;8.80;53.48;99172.75;5053811;28;20222;-54
2023/01/28 11:40:28;;;;;;;5.83;5.07;;;;;;;8.81;53.06;99182.16;5053003;28;20431;-54
2023/01/28 11:42:57;;;;;;;5.67;5.17;;;;;;;8.96;53.59;99187.53;5053742;28;20199;-53
2023/01/28 11:45:34;;;;;;;8.87;6.10;;;;;;;8.93;53.50;99179.78;5053661;28;20188;-54
2023/01/28 11:48:19;;;;;;;5.30;4.80;;;;;;;8.96;52.64;99176.41;5047729;28;20212;-54
2023/01/28 11:50:55;;;;;;;6.70;5.13;;;;;;;8.76;54.09;99182.06;5037383;28;20200;-54
2023/01/28 11:53:44;;;;;;;7.13;6.43;;;;;;;8.46;55.49;99178.91;5033554;28;20220;-54
2023/01/28 11:56:25;;;;;;;8.65;6.63;;;;;;;8.43;55.85;99163.53;5029587;28;20440;-54
2023/01/28 11:58:59;;;;;;;6.03;5.43;;;;;;;8.68;54.16;99172.53;5037826;28;20193;-55
2023/01/28 12:01:38;;;;;;;6.63;5.17;;;;;;;8.66;53.86;99182.72;5045619;28;20195;-54
2023/01/28 12:04:21;;;;;;;6.77;5.33;;;;;;;8.58;54.90;99184.28;5053432;28;20200;-54
2023/01/28 12:07:02;;;;;;;6.30;5.70;;;;;;;8.48;54.95;99177.28;5053409;28;20195;-54
2023/01/28 12:09:35;;;;;;;6.93;5.80;;;;;;;8.45;55.96;99177.22;5053227;28;20671;-54
2023/01/28 12:12:30;;;;;;;6.93;6.23;;;;;;;8.46;55.80;99181.47;5053267;28;20195;-54
2023/01/28 12:15:28;;;;;;;9.13;6.10;;;;;;;8.48;55.86;99187.50;5053382;28;20586;-54
2023/01/28 12:18:12;;;;;;;6.27;5.67;;;;;;;8.37;56.49;99186.44;5037184;28;20283;-56
2023/01/28 12:20:51;;;;;;;6.27;5.67;;;;;;;8.43;56.19;99194.25;5052591;28;20189;-55